createdAt,value
2023-11-25T00:00:00.588Z,5.8
2023-11-25T00:05:00.575Z,4.4
2023-11-25T00:10:00.769Z,5.4
2023-11-25T00:15:00.578Z,5.1
2023-11-25T00:20:00.558Z,4.9
2023-11-25T00:25:00.607Z,4.3
2023-11-25T00:30:00.598Z,4.9
2023-11-25T00:35:00.594Z,4.5
2023-11-25T00:40:00.593Z,4.6
2023-11-25T00:45:00.605Z,4.3
2023-11-25T00:50:00.599Z,2.7
2023-11-25T00:55:00.620Z,1.4
2023-11-25T01:00:00.548Z,2.9
2023-11-25T01:05:00.625Z,2.8
2023-11-25T01:10:00.611Z,2.8
2023-11-25T01:15:01.479Z,3.0
2023-11-25T01:20:01.582Z,2.8
2023-11-25T01:25:00.618Z,2.8
2023-11-25T01:30:00.572Z,2.9
2023-11-25T01:35:00.626Z,4.6
2023-11-25T01:40:00.600Z,3.1
2023-11-25T01:45:00.599Z,3.1
2023-11-25T01:50:00.590Z,6.7
2023-11-25T01:55:00.599Z,3.7
2023-11-25T02:00:00.572Z,4.0
2023-11-25T02:05:00.768Z,2.6
2023-11-25T02:10:00.599Z,3.7
2023-11-25T02:15:00.685Z,3.7
2023-11-25T02:20:00.595Z,4.2
2023-11-25T02:25:00.582Z,4.5
2023-11-25T02:30:00.551Z,3.0
2023-11-25T02:35:00.626Z,3.9
2023-11-25T02:40:00.620Z,5.3
2023-11-25T02:45:00.590Z,4.9
2023-11-25T02:50:00.595Z,5.6
2023-11-25T02:55:00.600Z,7.0
2023-11-25T03:00:00.612Z,9.2
2023-11-25T03:05:00.600Z,6.1
2023-11-25T03:10:00.569Z,4.8
2023-11-25T03:15:00.602Z,6.9
2023-11-25T03:20:00.585Z,6.7
2023-11-25T03:25:00.594Z,5.5
2023-11-25T03:30:00.607Z,6.6
2023-11-25T03:35:02.172Z,4.2
2023-11-25T03:40:00.564Z,5.4
2023-11-25T03:45:00.599Z,4.0
2023-11-25T03:50:00.601Z,4.3
2023-11-25T03:55:00.604Z,4.8
2023-11-25T04:00:00.612Z,4.0
2023-11-25T04:05:00.811Z,2.8
2023-11-25T04:10:00.614Z,3.7
2023-11-25T04:15:00.582Z,4.6
2023-11-25T04:20:00.577Z,4.2
2023-11-25T04:25:00.614Z,3.7
2023-11-25T04:30:00.553Z,6.8
2023-11-25T04:35:00.599Z,5.4
2023-11-25T04:40:00.606Z,5.1
2023-11-25T04:45:00.643Z,5.3
2023-11-25T04:50:00.622Z,3.1
2023-11-25T04:55:00.634Z,3.6
2023-11-25T05:00:00.598Z,3.8
2023-11-25T05:05:00.600Z,3.8
2023-11-25T05:10:00.591Z,3.8
2023-11-25T05:15:00.647Z,5.3
2023-11-25T05:20:00.711Z,5.0
2023-11-25T05:25:00.643Z,6.5
2023-11-25T05:30:00.598Z,4.9
2023-11-25T05:35:00.599Z,4.8
2023-11-25T05:40:00.586Z,5.5
2023-11-25T05:45:00.622Z,6.4
2023-11-25T05:50:00.619Z,5.5
2023-11-25T05:55:00.609Z,7.3
2023-11-25T06:00:00.596Z,7.0
2023-11-25T06:05:00.887Z,7.1
2023-11-25T06:10:00.586Z,6.5
2023-11-25T06:15:00.643Z,4.5
2023-11-25T06:20:00.631Z,6.0
2023-11-25T06:25:00.605Z,4.2
2023-11-25T06:30:00.593Z,3.2
2023-11-25T06:35:00.768Z,4.3
2023-11-25T06:40:00.562Z,3.7
2023-11-25T06:45:00.598Z,5.8
2023-11-25T06:50:00.589Z,3.1
2023-11-25T06:55:00.639Z,4.1
2023-11-25T07:00:00.657Z,4.6
2023-11-25T07:05:00.607Z,4.8
2023-11-25T07:10:00.589Z,4.6
2023-11-25T07:15:00.615Z,2.9
2023-11-25T07:20:00.848Z,6.2
2023-11-25T07:25:00.597Z,6.1
2023-11-25T07:30:00.590Z,6.5
2023-11-25T07:35:00.603Z,6.0
2023-11-25T07:40:00.633Z,5.5
2023-11-25T07:45:00.621Z,4.5
2023-11-25T07:50:00.629Z,4.9
2023-11-25T07:55:00.601Z,7.2
2023-11-25T08:00:00.584Z,2.5
2023-11-25T08:05:00.709Z,1.5
2023-11-25T08:10:00.602Z,5.7
2023-11-25T08:15:00.582Z,4.6
2023-11-25T08:20:00.588Z,4.2
2023-11-25T08:25:00.602Z,1.2
2023-11-25T08:30:00.631Z,2.1
2023-11-25T08:35:00.618Z,2.6
2023-11-25T08:40:00.574Z,2.4
2023-11-25T08:45:00.586Z,2.0
2023-11-25T08:50:01.107Z,3.2
2023-11-25T08:55:00.596Z,2.3
2023-11-25T09:00:00.620Z,3.6
2023-11-25T09:05:11.581Z,4.8
2023-11-25T09:10:00.592Z,2.7
2023-11-25T09:15:00.632Z,5.5
2023-11-25T09:20:01.012Z,3.0
2023-11-25T09:25:00.753Z,3.4
2023-11-25T09:30:00.586Z,4.0
2023-11-25T09:35:00.688Z,2.4
2023-11-25T09:40:00.595Z,2.2
2023-11-25T09:45:00.590Z,2.6
2023-11-25T09:50:00.689Z,3.5
2023-11-25T09:55:00.604Z,1.9
2023-11-25T10:00:00.591Z,2.0
2023-11-25T10:05:00.613Z,1.5
2023-11-25T10:10:00.576Z,3.9
2023-11-25T10:15:00.709Z,4.3
2023-11-25T10:20:00.570Z,3.2
2023-11-25T10:25:00.588Z,2.0
2023-11-25T10:30:00.624Z,3.0
2023-11-25T10:35:00.645Z,1.4
2023-11-25T10:40:00.610Z,2.3
2023-11-25T10:45:00.631Z,4.1
2023-11-25T10:50:00.678Z,4.4
2023-11-25T10:55:00.621Z,4.3
2023-11-25T11:00:00.561Z,3.9
2023-11-25T11:05:00.595Z,3.7
2023-11-25T11:10:00.601Z,3.8
2023-11-25T11:15:00.557Z,3.2
2023-11-25T11:20:00.605Z,2.4
2023-11-25T11:25:00.584Z,3.4
2023-11-25T11:30:00.611Z,3.1
2023-11-25T11:35:00.727Z,1.9
2023-11-25T11:40:00.627Z,4.8
2023-11-25T11:45:00.866Z,4.9
2023-11-25T11:50:00.781Z,3.0
2023-11-25T11:55:00.586Z,1.8
2023-11-25T12:00:00.580Z,3.2
2023-11-25T12:05:01.295Z,5.4
2023-11-25T12:10:00.666Z,5.3
2023-11-25T12:15:00.602Z,1.5
2023-11-25T12:20:00.621Z,1.6
2023-11-25T12:25:00.610Z,3.7
2023-11-25T12:30:00.602Z,3.3
2023-11-25T12:35:00.689Z,4.0
2023-11-25T12:40:00.565Z,0.7
2023-11-25T12:45:00.596Z,0.5
2023-11-25T12:50:00.659Z,2.4
2023-11-25T12:55:00.647Z,1.9
2023-11-25T13:00:00.597Z,2.6
2023-11-25T13:05:00.650Z,2.2
2023-11-25T13:10:00.659Z,1.8
2023-11-25T13:15:00.614Z,0.8
2023-11-25T13:20:00.629Z,3.0
2023-11-25T13:25:00.616Z,3.0
2023-11-25T13:30:00.623Z,1.3
2023-11-25T13:35:00.699Z,3.0
2023-11-25T13:40:00.615Z,4.3
2023-11-25T13:45:03.495Z,2.7
2023-11-25T13:50:00.722Z,3.0
2023-11-25T13:55:00.585Z,6.0
2023-11-25T14:00:00.597Z,3.0
2023-11-25T14:05:00.627Z,1.1
2023-11-25T14:10:00.596Z,7.3
2023-11-25T14:15:00.599Z,5.6
2023-11-25T14:20:00.811Z,7.0
2023-11-25T14:25:00.589Z,3.0
2023-11-25T14:30:00.549Z,3.1
2023-11-25T14:35:00.963Z,1.5
2023-11-25T14:40:02.099Z,2.7
2023-11-25T14:45:00.603Z,5.2
2023-11-25T14:50:00.686Z,2.7
2023-11-25T14:55:00.620Z,5.3
2023-11-25T15:00:00.586Z,6.1
2023-11-25T15:05:00.688Z,4.4
2023-11-25T15:10:00.557Z,4.5
2023-11-25T15:15:00.605Z,4.4
2023-11-25T15:20:00.728Z,5.8
2023-11-25T15:25:00.641Z,5.4
2023-11-25T15:30:00.879Z,6.7
2023-11-25T15:35:00.710Z,5.0
2023-11-25T15:40:00.584Z,3.9
2023-11-25T15:45:00.600Z,2.9
2023-11-25T15:50:00.827Z,3.3
2023-11-25T15:55:00.640Z,3.3
2023-11-25T16:00:00.550Z,4.8
2023-11-25T16:05:00.893Z,4.4
2023-11-25T16:10:00.607Z,5.0
2023-11-25T16:15:00.606Z,1.6
2023-11-25T16:20:00.728Z,3.3
2023-11-25T16:25:00.630Z,2.2
2023-11-25T16:30:00.563Z,3.7
2023-11-25T16:35:00.815Z,1.7
2023-11-25T16:40:00.779Z,2.4
2023-11-25T16:45:00.654Z,3.4
2023-11-25T16:50:00.784Z,4.2
2023-11-25T16:55:00.582Z,3.2
2023-11-25T17:00:00.652Z,1.9
2023-11-25T17:05:01.008Z,3.6
2023-11-25T17:10:00.763Z,6.6
2023-11-25T17:15:00.623Z,5.1
2023-11-25T17:20:01.095Z,5.4
2023-11-25T17:25:00.620Z,5.6
2023-11-25T17:30:00.627Z,4.9
2023-11-25T17:35:01.306Z,5.5
2023-11-25T17:40:00.625Z,4.4
2023-11-25T17:45:00.575Z,3.9
2023-11-25T17:50:00.707Z,6.7
2023-11-25T17:55:00.598Z,6.8
2023-11-25T18:00:00.887Z,4.7
2023-11-25T18:05:01.149Z,4.0
2023-11-25T18:10:00.613Z,5.4
2023-11-25T18:15:00.687Z,5.5
2023-11-25T18:20:00.829Z,7.1
2023-11-25T18:25:00.620Z,4.1
2023-11-25T18:30:00.619Z,5.2
2023-11-25T18:35:00.673Z,3.2
2023-11-25T18:40:00.641Z,4.0
2023-11-25T18:45:00.597Z,3.3
2023-11-25T18:50:00.801Z,2.4
2023-11-25T18:55:00.599Z,1.9
2023-11-25T19:00:00.622Z,1.6
2023-11-25T19:05:00.689Z,1.5
2023-11-25T19:10:00.614Z,0.1
2023-11-25T19:15:00.658Z,0.1
2023-11-25T19:20:00.811Z,0.2
2023-11-25T19:25:00.612Z,0.2
2023-11-25T19:30:00.627Z,0.7
2023-11-25T19:35:00.716Z,0.5
2023-11-25T19:40:00.645Z,1.5
2023-11-25T19:45:00.588Z,2.4
2023-11-25T19:50:00.754Z,2.1
2023-11-25T19:55:00.593Z,0.6
2023-11-25T20:00:00.665Z,2.3
2023-11-25T20:05:01.080Z,1.2
2023-11-25T20:10:00.622Z,0.6
2023-11-25T20:15:00.566Z,2.2
2023-11-25T20:20:00.928Z,2.1
2023-11-25T20:25:00.601Z,3.5
2023-11-25T20:30:00.625Z,4.5
2023-11-25T20:35:00.644Z,2.5
2023-11-25T20:40:00.624Z,2.0
2023-11-25T20:45:00.611Z,3.3
2023-11-25T20:50:00.779Z,3.6
2023-11-25T20:55:00.624Z,1.5
2023-11-25T21:00:00.658Z,3.4
2023-11-25T21:05:00.737Z,3.1
2023-11-25T21:10:00.624Z,4.6
2023-11-25T21:15:00.587Z,3.2
2023-11-25T21:20:00.712Z,3.7
2023-11-25T21:25:00.626Z,6.4
2023-11-25T21:30:00.620Z,5.0
2023-11-25T21:35:00.819Z,2.6
2023-11-25T21:40:16.653Z,0.4
2023-11-25T21:45:00.646Z,1.8
2023-11-25T21:50:00.685Z,1.0
2023-11-25T21:55:00.612Z,3.9
2023-11-25T22:00:00.703Z,3.4
2023-11-25T22:05:00.709Z,3.5
2023-11-25T22:10:00.628Z,4.6
2023-11-25T22:15:00.585Z,0.8
2023-11-25T22:20:00.722Z,1.9
2023-11-25T22:25:00.665Z,1.7
2023-11-25T22:30:00.616Z,0.9
2023-11-25T22:35:00.691Z,1.6
2023-11-25T22:40:00.596Z,1.1
2023-11-25T22:45:00.647Z,1.6
2023-11-25T22:50:00.666Z,1.8
2023-11-25T22:55:00.605Z,1.9
2023-11-25T23:00:00.856Z,1.6
2023-11-25T23:05:00.677Z,0.6
2023-11-25T23:10:00.636Z,0.5
2023-11-25T23:15:00.832Z,1.2
2023-11-25T23:20:00.726Z,0.5
2023-11-25T23:25:00.625Z,0.7
2023-11-25T23:30:00.621Z,1.9
2023-11-25T23:35:00.683Z,0.6
2023-11-25T23:40:00.629Z,1.7
2023-11-25T23:45:00.585Z,0.6
2023-11-25T23:50:00.694Z,0.2
2023-11-25T23:55:00.621Z,0.8
